Copeland, Florida
Current Conditions -  °F | °C
As of 7:35 AM on Friday 31 Oct 2014 (Local Time) from KMKY Reporting Station
Clear Clear  
Wind Chill: 68°   Ceiling: Unl
Heat Index: 68°   Visibility: 10mi
Dew Point: 66°   Wind: 3mph
Humidity: 94%   Direction: 120°ESE
Pressure: 29.85"   Gusts: NA
Location:  25.95°N, 81.36°W
Report Text: KMKY 311135Z 12003KT 10SM CLR 20/19 A2985 RMK AO1
Loading
Personal Weather Stations






























Interactive Weather Map
Tropical Storm Tracking
New forecast layout! Learn more

10-Day Weather Forecast

Advertisements
Track Severe Weather on mobile